createdAt,value
2018-02-08T00:00:22.670Z,0.00
2018-02-08T00:01:22.688Z,0.00
2018-02-08T00:03:16.455Z,0.00
2018-02-08T00:04:16.455Z,0.00
2018-02-08T00:06:09.375Z,0.00
2018-02-08T00:07:09.373Z,0.00
2018-02-08T00:09:02.291Z,0.00
2018-02-08T00:10:02.290Z,0.00
2018-02-08T00:12:07.964Z,0.00
2018-02-08T00:13:07.998Z,0.00
2018-02-08T00:15:01.337Z,0.00
2018-02-08T00:16:01.108Z,0.00
2018-02-08T00:17:54.873Z,0.00
2018-02-08T00:18:54.872Z,0.00
2018-02-08T00:20:47.790Z,0.00
2018-02-08T00:21:47.789Z,0.00
2018-02-08T00:23:40.706Z,0.00
2018-02-08T00:24:40.705Z,0.00
2018-02-08T00:26:46.734Z,0.00
2018-02-08T00:27:46.378Z,0.00
2018-02-08T00:29:39.299Z,0.00
2018-02-08T00:30:39.294Z,0.00
2018-02-08T00:32:44.967Z,0.00
2018-02-08T00:33:44.967Z,0.00
2018-02-08T00:35:38.732Z,0.00
2018-02-08T00:36:38.731Z,0.00
2018-02-08T00:38:31.652Z,0.00
2018-02-08T00:39:31.671Z,0.00
2018-02-08T00:41:24.565Z,0.00
2018-02-08T00:42:24.564Z,0.00
2018-02-08T00:44:17.508Z,0.00
2018-02-08T00:45:17.508Z,0.00
2018-02-08T00:47:23.155Z,0.00
2018-02-08T00:48:23.153Z,0.00
2018-02-08T00:50:16.072Z,0.00
2018-02-08T00:51:16.070Z,0.00
2018-02-08T00:53:21.749Z,0.00
2018-02-08T00:54:21.747Z,0.00
2018-02-08T00:56:14.665Z,0.00
2018-02-08T00:57:14.665Z,0.00
2018-02-08T00:59:08.659Z,0.00
2018-02-08T01:00:08.658Z,0.00
2018-02-08T01:02:14.318Z,0.00
2018-02-08T01:03:14.329Z,0.00
2018-02-08T01:05:07.248Z,0.00
2018-02-08T01:06:07.246Z,0.00
2018-02-08T01:08:01.015Z,0.00
2018-02-08T01:09:01.011Z,0.00
2018-02-08T01:10:53.930Z,0.00
2018-02-08T01:11:53.928Z,0.00
2018-02-08T01:13:46.845Z,0.00
2018-02-08T01:14:46.849Z,0.00
2018-02-08T01:16:39.765Z,0.00
2018-02-08T01:17:39.799Z,0.00
2018-02-08T01:19:33.546Z,0.00
2018-02-08T01:20:33.529Z,0.00
2018-02-08T01:22:39.200Z,0.00
2018-02-08T01:23:39.198Z,0.00
2018-02-08T01:25:32.116Z,0.00
2018-02-08T01:26:32.115Z,0.00
2018-02-08T01:28:26.729Z,0.00
2018-02-08T01:29:26.728Z,0.00
2018-02-08T01:31:32.401Z,0.00
2018-02-08T01:32:32.400Z,0.00
2018-02-08T01:34:25.403Z,0.00
2018-02-08T01:35:25.317Z,0.00
2018-02-08T01:37:31.217Z,0.00
2018-02-08T01:38:30.989Z,0.00
2018-02-08T01:40:23.909Z,0.00
2018-02-08T01:41:23.907Z,0.00
2018-02-08T01:43:17.674Z,0.00
2018-02-08T01:44:17.672Z,0.00
2018-02-08T01:46:10.589Z,0.00
2018-02-08T01:47:10.588Z,0.00
2018-02-08T01:49:03.506Z,0.00
2018-02-08T01:50:03.505Z,0.00
2018-02-08T01:51:58.121Z,0.00
2018-02-08T01:52:58.118Z,0.00
2018-02-08T01:54:51.122Z,0.00
2018-02-08T01:55:51.046Z,0.00
2018-02-08T01:57:44.831Z,0.00
2018-02-08T01:58:44.810Z,0.00
2018-02-08T02:00:50.837Z,0.00
2018-02-08T02:01:50.481Z,0.00
2018-02-08T02:03:43.634Z,0.00
2018-02-08T02:04:43.418Z,0.00
2018-02-08T02:06:49.318Z,0.00
2018-02-08T02:07:49.070Z,0.00
2018-02-08T02:09:41.990Z,0.00
2018-02-08T02:10:42.023Z,0.00
2018-02-08T02:12:35.738Z,0.00
2018-02-08T02:13:35.758Z,0.00
2018-02-08T02:15:28.679Z,0.00
2018-02-08T02:16:28.677Z,0.00
2018-02-08T02:18:21.595Z,0.00
2018-02-08T02:19:21.594Z,0.00
2018-02-08T02:21:27.267Z,0.00
2018-02-08T02:22:27.266Z,0.00
2018-02-08T02:24:20.184Z,0.00
2018-02-08T02:25:20.186Z,0.00
2018-02-08T02:27:15.027Z,0.00
2018-02-08T02:28:14.797Z,0.00
2018-02-08T02:30:07.715Z,0.00
2018-02-08T02:31:07.750Z,0.00
2018-02-08T02:33:00.609Z,0.00
2018-02-08T02:34:00.630Z,0.00
2018-02-08T02:36:06.304Z,0.00
2018-02-08T02:37:06.302Z,0.00
2018-02-08T02:38:59.225Z,0.00
2018-02-08T02:39:59.223Z,0.00
2018-02-08T02:42:04.891Z,0.00
2018-02-08T02:43:04.893Z,0.00
2018-02-08T02:44:57.810Z,0.00
2018-02-08T02:45:57.811Z,0.00
2018-02-08T02:47:51.575Z,0.00
2018-02-08T02:48:51.575Z,0.00
2018-02-08T02:50:44.514Z,0.00
2018-02-08T02:51:44.492Z,0.00
2018-02-08T02:53:37.410Z,0.00
2018-02-08T02:54:37.411Z,0.00
2018-02-08T02:56:30.571Z,0.00
2018-02-08T02:57:30.326Z,0.00
2018-02-08T02:59:23.242Z,0.00
2018-02-08T03:00:23.241Z,0.00
2018-02-08T03:02:29.277Z,0.00
2018-02-08T03:03:28.913Z,0.00
2018-02-08T03:05:21.831Z,0.00
2018-02-08T03:06:21.830Z,0.00
2018-02-08T03:08:27.732Z,0.00
2018-02-08T03:09:27.502Z,0.00
2018-02-08T03:11:20.438Z,0.00
2018-02-08T03:12:20.418Z,0.00
2018-02-08T03:14:15.012Z,0.00
2018-02-08T03:15:15.032Z,0.00
2018-02-08T03:17:20.705Z,0.00
2018-02-08T03:18:20.717Z,0.00
2018-02-08T03:20:13.623Z,0.00
2018-02-08T03:21:13.621Z,0.00
2018-02-08T03:23:08.237Z,0.00
2018-02-08T03:24:08.235Z,0.00
2018-02-08T03:26:13.909Z,0.00
2018-02-08T03:27:13.909Z,0.00
2018-02-08T03:29:06.834Z,0.00
2018-02-08T03:30:06.827Z,0.00
2018-02-08T03:32:12.832Z,0.00
2018-02-08T03:33:12.497Z,0.00
2018-02-08T03:35:05.416Z,0.00
2018-02-08T03:36:05.415Z,0.00
2018-02-08T03:38:00.030Z,0.00
2018-02-08T03:39:00.028Z,0.00
2018-02-08T03:41:05.680Z,0.00
2018-02-08T03:42:05.700Z,0.00
2018-02-08T03:43:59.469Z,0.00
2018-02-08T03:44:59.469Z,0.00
2018-02-08T03:46:53.213Z,0.00
2018-02-08T03:47:53.232Z,0.00
2018-02-08T03:49:48.097Z,0.00
2018-02-08T03:50:47.845Z,0.00
2018-02-08T03:51:47.874Z,0.00
2018-02-08T03:52:47.901Z,0.00
2018-02-08T03:53:47.930Z,0.00
2018-02-08T03:54:47.956Z,0.00
2018-02-08T03:55:47.984Z,0.00
2018-02-08T03:56:48.012Z,0.00
2018-02-08T03:57:48.059Z,0.00
2018-02-08T03:58:48.073Z,0.00
2018-02-08T03:59:48.094Z,0.00
2018-02-08T04:00:56.080Z,0.00
2018-02-08T04:02:41.041Z,0.00
2018-02-08T04:03:41.041Z,0.00
2018-02-08T04:05:35.655Z,0.00
2018-02-08T04:06:35.654Z,0.00
2018-02-08T04:08:41.568Z,0.00
2018-02-08T04:09:41.326Z,0.00
2018-02-08T04:11:34.245Z,0.00
2018-02-08T04:12:34.246Z,0.00
2018-02-08T04:14:28.907Z,0.00
2018-02-08T04:15:28.859Z,0.00
2018-02-08T04:17:34.510Z,0.00
2018-02-08T04:18:34.530Z,0.00
2018-02-08T04:20:27.449Z,0.00
2018-02-08T04:21:27.448Z,0.00
2018-02-08T04:23:33.362Z,0.00
2018-02-08T04:24:33.120Z,0.00
2018-02-08T04:26:38.794Z,0.00
2018-02-08T04:27:38.793Z,0.00
2018-02-08T04:29:31.710Z,0.00
2018-02-08T04:30:31.710Z,0.00
2018-02-08T04:32:24.695Z,0.00
2018-02-08T04:33:24.626Z,0.00
2018-02-08T04:35:17.545Z,0.00
2018-02-08T04:36:17.544Z,0.00
2018-02-08T04:38:23.198Z,0.00
2018-02-08T04:39:23.256Z,0.00
2018-02-08T04:41:16.139Z,0.00
2018-02-08T04:42:16.136Z,0.00
2018-02-08T04:44:10.750Z,0.00
2018-02-08T04:45:10.749Z,0.00
2018-02-08T04:47:03.668Z,0.00
2018-02-08T04:48:03.666Z,0.00
2018-02-08T04:49:56.561Z,0.00
2018-02-08T04:50:56.583Z,0.00
2018-02-08T04:52:49.957Z,0.00
2018-02-08T04:53:49.727Z,0.00
2018-02-08T04:55:42.645Z,0.00
2018-02-08T04:56:42.644Z,0.00
2018-02-08T04:58:37.488Z,0.00
2018-02-08T04:59:37.489Z,0.00
2018-02-08T05:01:43.139Z,0.00
2018-02-08T05:02:43.158Z,0.00
2018-02-08T05:04:36.164Z,0.00
2018-02-08T05:05:36.082Z,0.00
2018-02-08T05:07:29.853Z,0.00
2018-02-08T05:08:29.845Z,544.00
2018-02-08T05:10:22.768Z,540.00
2018-02-08T05:11:22.770Z,536.00
2018-02-08T05:13:15.686Z,536.00
2018-02-08T05:14:15.685Z,536.00
2018-02-08T05:16:21.367Z,536.00
2018-02-08T05:17:21.357Z,532.00
2018-02-08T05:19:14.276Z,536.00
2018-02-08T05:20:14.287Z,536.00
2018-02-08T05:21:14.302Z,536.00
2018-02-08T05:22:14.329Z,536.00
2018-02-08T05:23:14.356Z,532.00
2018-02-08T05:24:14.385Z,532.00
2018-02-08T05:25:14.415Z,532.00
2018-02-08T05:26:14.440Z,532.00
2018-02-08T05:27:14.469Z,532.00
2018-02-08T05:28:14.496Z,532.00
2018-02-08T05:29:14.523Z,532.00
2018-02-08T05:30:14.551Z,532.00
2018-02-08T05:31:14.607Z,532.00
2018-02-08T05:32:14.605Z,532.00
2018-02-08T05:33:14.668Z,532.00
2018-02-08T05:34:14.662Z,536.00
2018-02-08T05:35:14.690Z,528.00
2018-02-08T05:36:14.717Z,536.00
2018-02-08T05:37:14.744Z,528.00
2018-02-08T05:38:14.771Z,532.00
2018-02-08T05:39:14.800Z,532.00
2018-02-08T05:40:14.846Z,532.00
2018-02-08T05:41:14.855Z,532.00
2018-02-08T05:42:14.883Z,532.00
2018-02-08T05:43:14.910Z,532.00
2018-02-08T05:44:14.938Z,528.00
2018-02-08T05:45:14.966Z,532.00
2018-02-08T05:46:14.996Z,532.00
2018-02-08T05:47:15.022Z,532.00
2018-02-08T05:48:15.050Z,528.00
2018-02-08T05:49:15.077Z,528.00
2018-02-08T05:50:15.103Z,528.00
2018-02-08T05:51:15.132Z,528.00
2018-02-08T05:52:15.159Z,528.00
2018-02-08T05:53:15.187Z,532.00
2018-02-08T05:54:15.213Z,528.00
2018-02-08T05:55:15.243Z,528.00
2018-02-08T05:56:15.272Z,528.00
2018-02-08T05:57:15.298Z,528.00
2018-02-08T05:58:15.361Z,528.00
2018-02-08T05:59:15.353Z,532.00
2018-02-08T06:00:15.390Z,528.00
2018-02-08T06:01:15.409Z,528.00
2018-02-08T06:02:15.436Z,532.00
2018-02-08T06:03:15.463Z,532.00
2018-02-08T06:04:15.492Z,536.00
2018-02-08T06:05:15.523Z,532.00
2018-02-08T06:06:15.547Z,532.00
2018-02-08T06:07:15.575Z,532.00
2018-02-08T06:08:15.621Z,536.00
2018-02-08T06:09:15.631Z,536.00
2018-02-08T06:10:15.662Z,536.00
2018-02-08T06:11:15.687Z,536.00
2018-02-08T06:12:15.714Z,536.00
2018-02-08T06:13:15.744Z,540.00
2018-02-08T06:14:15.771Z,540.00
2018-02-08T06:15:15.805Z,540.00
2018-02-08T06:16:15.828Z,544.00
2018-02-08T06:17:15.854Z,540.00
2018-02-08T06:18:15.882Z,540.00
2018-02-08T06:19:15.910Z,544.00
2018-02-08T06:20:15.937Z,544.00
2018-02-08T06:21:15.985Z,544.00
2018-02-08T06:22:15.993Z,544.00
2018-02-08T06:23:16.023Z,548.00
2018-02-08T06:24:16.086Z,548.00
2018-02-08T06:25:16.077Z,552.00
2018-02-08T06:26:16.107Z,552.00
2018-02-08T06:27:16.133Z,552.00
2018-02-08T06:28:16.162Z,556.00
2018-02-08T06:29:16.188Z,556.00
2018-02-08T06:30:16.215Z,552.00
2018-02-08T06:31:16.244Z,556.00
2018-02-08T06:32:16.272Z,556.00
2018-02-08T06:33:16.300Z,556.00
2018-02-08T06:34:16.327Z,552.00
2018-02-08T06:35:16.356Z,556.00
2018-02-08T06:36:16.397Z,560.00
2018-02-08T06:37:16.411Z,560.00
2018-02-08T06:38:16.438Z,564.00
2018-02-08T06:39:16.467Z,564.00
2018-02-08T06:40:16.495Z,564.00
2018-02-08T06:41:16.523Z,564.00
2018-02-08T06:42:16.555Z,564.00
2018-02-08T06:43:16.578Z,568.00
2018-02-08T06:44:16.606Z,572.00
2018-02-08T06:45:16.637Z,568.00
2018-02-08T06:46:16.661Z,572.00
2018-02-08T06:47:16.690Z,572.00
2018-02-08T06:48:16.719Z,580.00
2018-02-08T06:49:16.748Z,580.00
2018-02-08T06:50:16.773Z,584.00
2018-02-08T06:51:17.366Z,580.00
2018-02-08T06:52:16.830Z,576.00
2018-02-08T06:53:16.858Z,572.00
2018-02-08T06:54:16.930Z,580.00
2018-02-08T06:55:16.912Z,592.00
2018-02-08T06:56:16.940Z,596.00
2018-02-08T06:57:16.970Z,592.00
2018-02-08T06:58:16.996Z,596.00
2018-02-08T06:59:17.026Z,596.00
2018-02-08T07:00:17.052Z,604.00
2018-02-08T07:01:17.080Z,612.00
2018-02-08T07:02:17.108Z,604.00
2018-02-08T07:03:17.142Z,600.00
2018-02-08T07:04:17.164Z,608.00
2018-02-08T07:05:17.194Z,612.00
2018-02-08T07:06:17.234Z,612.00
2018-02-08T07:07:17.248Z,600.00
2018-02-08T07:08:17.276Z,592.00
2018-02-08T07:09:17.304Z,600.00
2018-02-08T07:10:17.330Z,604.00
2018-02-08T07:11:17.360Z,612.00
2018-02-08T07:12:17.388Z,608.00
2018-02-08T07:13:17.415Z,608.00
2018-02-08T07:14:17.446Z,616.00
2018-02-08T07:15:17.471Z,616.00
2018-02-08T07:16:17.499Z,624.00
2018-02-08T07:17:17.528Z,616.00
2018-02-08T07:18:17.558Z,628.00
2018-02-08T07:19:17.583Z,636.00
2018-02-08T07:20:17.611Z,640.00
2018-02-08T07:21:17.639Z,628.00
2018-02-08T07:22:17.666Z,624.00
2018-02-08T07:23:17.693Z,640.00
2018-02-08T07:24:17.723Z,636.00
2018-02-08T07:25:17.762Z,624.00
2018-02-08T07:26:17.777Z,636.00
2018-02-08T07:27:17.806Z,644.00
2018-02-08T07:28:17.840Z,652.00
2018-02-08T07:29:17.865Z,648.00
2018-02-08T07:30:17.890Z,652.00
2018-02-08T07:31:17.965Z,640.00
2018-02-08T07:32:17.946Z,648.00
2018-02-08T07:33:18.000Z,664.00
2018-02-08T07:34:18.002Z,672.00
2018-02-08T07:35:18.049Z,680.00
2018-02-08T07:36:18.059Z,696.00
2018-02-08T07:37:18.086Z,712.00
2018-02-08T07:38:18.113Z,728.00
2018-02-08T07:39:18.159Z,724.00
2018-02-08T07:40:18.197Z,708.00
2018-02-08T07:41:18.197Z,720.00
2018-02-08T07:42:18.224Z,720.00
2018-02-08T07:43:18.252Z,720.00
2018-02-08T07:44:18.289Z,228.00
2018-02-08T07:45:18.308Z,240.00
2018-02-08T07:46:18.340Z,224.00
2018-02-08T07:47:18.364Z,260.00
2018-02-08T07:48:18.392Z,316.00
2018-02-08T07:49:18.437Z,300.00
2018-02-08T07:50:18.454Z,268.00
2018-02-08T07:51:18.476Z,288.00
2018-02-08T07:52:18.503Z,328.00
2018-02-08T07:53:18.532Z,296.00
2018-02-08T07:54:18.559Z,296.00
2018-02-08T07:55:18.588Z,248.00
2018-02-08T07:56:18.616Z,268.00
2018-02-08T07:57:18.643Z,304.00
2018-02-08T07:58:18.673Z,312.00
2018-02-08T07:59:18.699Z,292.00
2018-02-08T08:00:18.727Z,292.00
2018-02-08T08:01:18.756Z,296.00
2018-02-08T08:02:18.786Z,288.00
2018-02-08T08:03:18.814Z,284.00
2018-02-08T08:04:18.839Z,304.00
2018-02-08T08:05:18.912Z,304.00
2018-02-08T08:06:18.904Z,312.00
2018-02-08T08:07:18.923Z,288.00
2018-02-08T08:08:18.951Z,288.00
2018-02-08T08:09:18.982Z,304.00
2018-02-08T08:10:19.007Z,300.00
2018-02-08T08:11:19.035Z,300.00
2018-02-08T08:12:19.065Z,288.00
2018-02-08T08:13:19.091Z,288.00
2018-02-08T08:14:19.118Z,268.00
2018-02-08T08:15:19.161Z,280.00
2018-02-08T08:16:19.203Z,260.00
2018-02-08T08:17:19.204Z,280.00
2018-02-08T08:18:19.244Z,296.00
2018-02-08T08:19:19.258Z,296.00
2018-02-08T08:20:19.293Z,284.00
2018-02-08T08:21:19.315Z,288.00
2018-02-08T08:22:19.342Z,284.00
2018-02-08T08:23:19.370Z,300.00
2018-02-08T08:24:19.399Z,312.00
2018-02-08T08:25:19.427Z,288.00
2018-02-08T08:26:19.461Z,276.00
2018-02-08T08:27:19.484Z,276.00
2018-02-08T08:28:19.518Z,296.00
2018-02-08T08:29:19.544Z,316.00
2018-02-08T08:30:19.566Z,308.00
2018-02-08T08:31:19.594Z,312.00
2018-02-08T08:32:19.623Z,324.00
2018-02-08T08:33:19.650Z,316.00
2018-02-08T08:34:19.697Z,324.00
2018-02-08T08:35:19.707Z,308.00
2018-02-08T08:36:19.741Z,304.00
2018-02-08T08:37:19.781Z,308.00
2018-02-08T08:38:19.822Z,328.00
2018-02-08T08:39:19.817Z,332.00
2018-02-08T08:40:19.848Z,324.00
2018-02-08T08:41:19.875Z,324.00
2018-02-08T08:42:19.903Z,328.00
2018-02-08T08:43:19.964Z,316.00
2018-02-08T08:44:19.958Z,308.00
2018-02-08T08:45:19.988Z,308.00
2018-02-08T08:46:20.019Z,240.00
2018-02-08T08:47:20.042Z,256.00
2018-02-08T08:48:20.071Z,412.00
2018-02-08T08:49:20.101Z,516.00
2018-02-08T08:50:20.125Z,460.00
2018-02-08T08:51:20.155Z,408.00
2018-02-08T08:52:20.186Z,336.00
2018-02-08T08:53:20.215Z,308.00
2018-02-08T08:54:20.238Z,272.00
2018-02-08T08:55:20.267Z,236.00
2018-02-08T08:56:20.294Z,248.00
2018-02-08T08:57:20.323Z,272.00
2018-02-08T08:58:20.350Z,332.00
2018-02-08T08:59:20.378Z,364.00
2018-02-08T09:00:20.406Z,352.00
2018-02-08T09:01:20.435Z,376.00
2018-02-08T09:02:20.462Z,372.00
2018-02-08T09:03:20.490Z,380.00
2018-02-08T09:04:20.547Z,384.00
2018-02-08T09:05:20.546Z,340.00
2018-02-08T09:06:20.579Z,348.00
2018-02-08T09:07:20.640Z,416.00
2018-02-08T09:08:20.641Z,460.00
2018-02-08T09:09:20.658Z,512.00
2018-02-08T09:10:20.686Z,396.00
2018-02-08T09:11:20.714Z,348.00
2018-02-08T09:12:20.743Z,348.00
2018-02-08T09:13:20.771Z,372.00
2018-02-08T09:14:20.827Z,364.00
2018-02-08T09:15:20.847Z,324.00
2018-02-08T09:16:20.858Z,272.00
2018-02-08T09:17:20.886Z,224.00
2018-02-08T09:18:20.910Z,200.00
2018-02-08T09:19:20.938Z,200.00
2018-02-08T09:20:20.967Z,188.00
2018-02-08T09:21:20.996Z,176.00
2018-02-08T09:22:21.062Z,160.00
2018-02-08T09:23:21.051Z,156.00
2018-02-08T09:24:21.079Z,152.00
2018-02-08T09:25:21.107Z,152.00
2018-02-08T09:26:21.134Z,152.00
2018-02-08T09:27:21.163Z,160.00
2018-02-08T09:28:21.194Z,160.00
2018-02-08T09:29:21.219Z,160.00
2018-02-08T09:30:21.251Z,164.00
2018-02-08T09:31:21.277Z,164.00
2018-02-08T09:32:21.329Z,160.00
2018-02-08T09:33:21.333Z,156.00
2018-02-08T09:34:21.359Z,144.00
2018-02-08T09:35:21.388Z,140.00
2018-02-08T09:36:21.416Z,152.00
2018-02-08T09:37:21.444Z,172.00
2018-02-08T09:38:21.471Z,192.00
2018-02-08T09:39:21.500Z,196.00
2018-02-08T09:40:21.560Z,224.00
2018-02-08T09:41:21.558Z,276.00
2018-02-08T09:42:21.586Z,300.00
2018-02-08T09:43:21.612Z,304.00
2018-02-08T09:44:21.640Z,316.00
2018-02-08T09:45:21.669Z,336.00
2018-02-08T09:46:21.696Z,316.00
2018-02-08T09:47:21.726Z,264.00
2018-02-08T09:48:21.762Z,272.00
2018-02-08T09:49:21.809Z,256.00
2018-02-08T09:50:21.808Z,236.00
2018-02-08T09:51:21.836Z,252.00
2018-02-08T09:52:21.866Z,276.00
2018-02-08T09:53:21.893Z,324.00
2018-02-08T09:54:21.921Z,332.00
2018-02-08T09:55:21.949Z,344.00
2018-02-08T09:56:21.977Z,320.00
2018-02-08T09:57:22.005Z,352.00
2018-02-08T09:58:22.033Z,332.00
2018-02-08T09:59:22.064Z,328.00
2018-02-08T10:00:22.089Z,332.00
2018-02-08T10:01:22.120Z,380.00
2018-02-08T10:02:22.146Z,396.00
2018-02-08T10:03:22.175Z,396.00
2018-02-08T10:04:22.224Z,408.00
2018-02-08T10:05:22.230Z,380.00
2018-02-08T10:06:22.261Z,376.00
2018-02-08T10:07:22.294Z,368.00
2018-02-08T10:08:22.316Z,348.00
2018-02-08T10:09:22.348Z,332.00
2018-02-08T10:10:22.369Z,316.00
2018-02-08T10:11:22.398Z,336.00
2018-02-08T10:12:22.428Z,392.00
2018-02-08T10:13:22.456Z,372.00
2018-02-08T10:14:22.482Z,396.00
2018-02-08T10:15:22.511Z,424.00
2018-02-08T10:16:22.539Z,484.00
2018-02-08T10:17:22.570Z,424.00
2018-02-08T10:18:22.594Z,436.00
2018-02-08T10:19:22.655Z,428.00
2018-02-08T10:20:22.654Z,392.00
2018-02-08T10:21:22.680Z,420.00
2018-02-08T10:22:22.708Z,460.00
2018-02-08T10:23:22.746Z,472.00
2018-02-08T10:24:22.765Z,488.00
2018-02-08T10:25:22.792Z,484.00
2018-02-08T10:26:22.821Z,460.00
2018-02-08T10:27:22.856Z,476.00
2018-02-08T10:28:22.877Z,460.00
2018-02-08T10:29:22.907Z,484.00
2018-02-08T10:30:22.965Z,488.00
2018-02-08T10:31:22.960Z,508.00
2018-02-08T10:32:22.989Z,436.00
2018-02-08T10:33:23.018Z,408.00
2018-02-08T10:34:23.085Z,452.00
2018-02-08T10:35:23.073Z,480.00
2018-02-08T10:36:23.101Z,544.00
2018-02-08T10:37:23.131Z,520.00
2018-02-08T10:38:23.158Z,488.00
2018-02-08T10:39:23.187Z,572.00
2018-02-08T10:40:23.214Z,568.00
2018-02-08T10:41:23.268Z,588.00
2018-02-08T10:42:23.271Z,568.00
2018-02-08T10:43:23.299Z,500.00
2018-02-08T10:44:23.327Z,568.00
2018-02-08T10:45:23.361Z,568.00
2018-02-08T10:46:23.383Z,536.00
2018-02-08T10:47:23.412Z,548.00
2018-02-08T10:48:23.443Z,564.00
2018-02-08T10:49:23.489Z,536.00
2018-02-08T10:50:23.496Z,536.00
2018-02-08T10:51:23.524Z,540.00
2018-02-08T10:52:23.557Z,532.00
2018-02-08T10:53:23.582Z,500.00
2018-02-08T10:54:23.610Z,480.00
2018-02-08T10:55:23.638Z,548.00
2018-02-08T10:56:23.667Z,504.00
2018-02-08T10:57:23.696Z,432.00
2018-02-08T10:58:23.722Z,476.00
2018-02-08T10:59:23.751Z,528.00
2018-02-08T11:00:23.780Z,488.00
2018-02-08T11:01:23.808Z,488.00
2018-02-08T11:02:23.835Z,468.00
2018-02-08T11:03:23.864Z,508.00
2018-02-08T11:04:23.894Z,488.00
2018-02-08T11:05:23.922Z,472.00
2018-02-08T11:06:23.948Z,448.00
2018-02-08T11:07:23.977Z,428.00
2018-02-08T11:08:24.006Z,392.00
2018-02-08T11:09:24.033Z,412.00
2018-02-08T11:10:24.061Z,436.00
2018-02-08T11:11:24.089Z,432.00
2018-02-08T11:12:24.118Z,360.00
2018-02-08T11:13:24.188Z,332.00
2018-02-08T11:14:24.174Z,412.00
2018-02-08T11:15:24.204Z,344.00
2018-02-08T11:16:24.233Z,368.00
2018-02-08T11:17:24.260Z,324.00
2018-02-08T11:18:24.288Z,292.00
2018-02-08T11:19:24.316Z,288.00
2018-02-08T11:20:24.348Z,292.00
2018-02-08T11:21:24.376Z,320.00
2018-02-08T11:22:24.401Z,360.00
2018-02-08T11:23:24.428Z,396.00
2018-02-08T11:24:24.458Z,460.00
2018-02-08T11:25:24.487Z,440.00
2018-02-08T11:26:24.531Z,536.00
2018-02-08T11:27:24.545Z,436.00
2018-02-08T11:28:24.570Z,332.00
2018-02-08T11:29:24.601Z,360.00
2018-02-08T11:30:24.627Z,448.00
2018-02-08T11:31:24.656Z,464.00
2018-02-08T11:32:24.686Z,544.00
2018-02-08T11:33:24.712Z,524.00
2018-02-08T11:34:24.741Z,552.00
2018-02-08T11:35:24.770Z,504.00
2018-02-08T11:36:24.798Z,532.00
2018-02-08T11:37:24.828Z,468.00
2018-02-08T11:38:24.854Z,460.00
2018-02-08T11:39:24.883Z,464.00
2018-02-08T11:40:24.913Z,412.00
2018-02-08T11:41:24.940Z,420.00
2018-02-08T11:42:24.987Z,460.00
2018-02-08T11:43:24.997Z,444.00
2018-02-08T11:44:25.025Z,348.00
2018-02-08T11:45:25.054Z,364.00
2018-02-08T11:46:25.080Z,416.00
2018-02-08T11:47:25.109Z,380.00
2018-02-08T11:48:25.138Z,352.00
2018-02-08T11:49:25.166Z,296.00
2018-02-08T11:50:25.195Z,272.00
2018-02-08T11:51:25.224Z,280.00
2018-02-08T11:52:25.251Z,260.00
2018-02-08T11:53:25.279Z,232.00
2018-02-08T11:54:25.306Z,228.00
2018-02-08T11:55:25.336Z,220.00
2018-02-08T11:56:25.368Z,232.00
2018-02-08T11:57:25.393Z,220.00
2018-02-08T11:58:25.468Z,232.00
2018-02-08T11:59:25.449Z,244.00
2018-02-08T12:00:25.477Z,232.00
2018-02-08T12:01:25.506Z,228.00
2018-02-08T12:02:25.534Z,264.00
2018-02-08T12:03:25.566Z,252.00
2018-02-08T12:04:25.595Z,236.00
2018-02-08T12:05:25.621Z,224.00
2018-02-08T12:06:25.647Z,236.00
2018-02-08T12:07:25.675Z,232.00
2018-02-08T12:08:25.704Z,228.00
2018-02-08T12:09:25.737Z,236.00
2018-02-08T12:10:25.760Z,216.00
2018-02-08T12:11:25.792Z,244.00
2018-02-08T12:12:25.818Z,236.00
2018-02-08T12:13:25.852Z,236.00
2018-02-08T12:14:25.873Z,244.00
2018-02-08T12:15:25.902Z,252.00
2018-02-08T12:16:25.932Z,256.00
2018-02-08T12:17:25.960Z,212.00
2018-02-08T12:18:25.987Z,256.00
2018-02-08T12:19:26.016Z,244.00
2018-02-08T12:20:26.044Z,252.00
2018-02-08T12:21:26.073Z,240.00
2018-02-08T12:22:26.102Z,252.00
2018-02-08T12:23:26.130Z,260.00
2018-02-08T12:24:26.158Z,252.00
2018-02-08T12:25:26.188Z,244.00
2018-02-08T12:26:26.214Z,248.00
2018-02-08T12:27:26.251Z,256.00
2018-02-08T12:28:26.282Z,264.00
2018-02-08T12:29:26.301Z,220.00
2018-02-08T12:30:26.328Z,244.00
2018-02-08T12:31:26.357Z,240.00
2018-02-08T12:32:26.387Z,260.00
2018-02-08T12:33:26.413Z,260.00
2018-02-08T12:34:26.440Z,236.00
2018-02-08T12:35:26.473Z,232.00
2018-02-08T12:36:26.499Z,248.00
2018-02-08T12:37:26.527Z,236.00
2018-02-08T12:38:26.554Z,204.00
2018-02-08T12:39:26.584Z,212.00
2018-02-08T12:40:26.651Z,228.00
2018-02-08T12:41:26.640Z,216.00
2018-02-08T12:42:26.695Z,232.00
2018-02-08T12:43:26.695Z,216.00
2018-02-08T12:44:26.723Z,236.00
2018-02-08T12:45:26.754Z,236.00
2018-02-08T12:46:26.780Z,252.00
2018-02-08T12:47:26.822Z,252.00
2018-02-08T12:48:26.839Z,232.00
2018-02-08T12:49:26.866Z,248.00
2018-02-08T12:50:26.894Z,236.00
2018-02-08T12:51:26.926Z,248.00
2018-02-08T12:52:26.951Z,220.00
2018-02-08T12:53:26.978Z,216.00
2018-02-08T12:54:27.008Z,204.00
2018-02-08T12:55:27.036Z,224.00
2018-02-08T12:56:27.064Z,204.00
2018-02-08T12:57:27.092Z,212.00
2018-02-08T12:58:27.118Z,220.00
2018-02-08T12:59:27.150Z,228.00
2018-02-08T13:00:27.182Z,208.00
2018-02-08T13:01:27.205Z,208.00
2018-02-08T13:02:27.232Z,212.00
2018-02-08T13:03:27.300Z,204.00
2018-02-08T13:04:27.289Z,224.00
2018-02-08T13:05:27.318Z,224.00
2018-02-08T13:06:27.345Z,228.00
2018-02-08T13:07:27.374Z,220.00
2018-02-08T13:08:27.402Z,212.00
2018-02-08T13:09:27.431Z,196.00
2018-02-08T13:10:27.481Z,196.00
2018-02-08T13:11:27.488Z,196.00
2018-02-08T13:12:27.517Z,188.00
2018-02-08T13:13:27.546Z,192.00
2018-02-08T13:14:27.572Z,196.00
2018-02-08T13:15:27.632Z,192.00
2018-02-08T13:16:27.629Z,196.00
2018-02-08T13:17:27.657Z,204.00
2018-02-08T13:18:27.686Z,200.00
2018-02-08T13:19:27.713Z,212.00
2018-02-08T13:20:27.790Z,212.00
2018-02-08T13:21:27.771Z,212.00
2018-02-08T13:22:27.799Z,200.00
2018-02-08T13:23:27.826Z,200.00
2018-02-08T13:24:27.855Z,192.00
2018-02-08T13:25:27.883Z,188.00
2018-02-08T13:26:27.911Z,180.00
2018-02-08T13:27:27.939Z,180.00
2018-02-08T13:28:27.968Z,172.00
2018-02-08T13:29:27.996Z,172.00
2018-02-08T13:30:28.049Z,168.00
2018-02-08T13:31:28.053Z,164.00
2018-02-08T13:32:28.081Z,164.00
2018-02-08T13:33:28.109Z,160.00
2018-02-08T13:34:28.139Z,160.00
2018-02-08T13:35:28.192Z,156.00
2018-02-08T13:36:28.195Z,152.00
2018-02-08T13:37:28.223Z,148.00
2018-02-08T13:38:28.251Z,140.00
2018-02-08T13:39:28.279Z,140.00
2018-02-08T13:40:28.307Z,136.00
2018-02-08T13:41:28.335Z,128.00
2018-02-08T13:42:28.363Z,128.00
2018-02-08T13:43:28.394Z,124.00
2018-02-08T13:44:28.420Z,124.00
2018-02-08T13:45:28.449Z,120.00
2018-02-08T13:46:28.476Z,116.00
2018-02-08T13:47:28.508Z,112.00
2018-02-08T13:48:28.534Z,112.00
2018-02-08T13:49:28.563Z,108.00
2018-02-08T13:50:28.590Z,108.00
2018-02-08T13:51:28.618Z,108.00
2018-02-08T13:52:28.646Z,108.00
2018-02-08T13:53:28.674Z,100.00
2018-02-08T13:54:28.702Z,108.00
2018-02-08T13:55:28.731Z,100.00
2018-02-08T13:56:28.760Z,100.00
2018-02-08T13:57:28.788Z,108.00
2018-02-08T13:58:28.815Z,100.00
2018-02-08T13:59:28.844Z,104.00
2018-02-08T14:00:28.873Z,96.00
2018-02-08T14:01:28.901Z,100.00
2018-02-08T14:02:28.928Z,92.00
2018-02-08T14:03:28.957Z,92.00
2018-02-08T14:04:29.018Z,96.00
2018-02-08T14:05:29.014Z,92.00
2018-02-08T14:06:29.047Z,92.00
2018-02-08T14:07:29.070Z,92.00
2018-02-08T14:08:29.098Z,84.00
2018-02-08T14:09:29.127Z,84.00
2018-02-08T14:10:29.154Z,80.00
2018-02-08T14:11:29.220Z,76.00
2018-02-08T14:12:29.212Z,76.00
2018-02-08T14:13:29.241Z,72.00
2018-02-08T14:14:29.289Z,72.00
2018-02-08T14:15:29.296Z,68.00
2018-02-08T14:16:29.361Z,68.00
2018-02-08T14:17:29.353Z,68.00
2018-02-08T14:18:29.395Z,64.00
2018-02-08T14:19:29.408Z,64.00
2018-02-08T14:20:29.437Z,60.00
2018-02-08T14:21:29.465Z,56.00